Time;durP1;ratioP1;P1;durP2;ratioP2;P2;SDS_P1;SDS_P2;PMS_P1;PMS_P2;Temp;Humidity;BMP_temperature;BMP_pressure;BME280_temperature;BME280_humidity;BME280_pressure;Samples;Min_cycle;Max_cycle;Signal;HPM_P1;HPM_P2
2022/07/12 00:01:46;;;;;;;4.70;3.83;;;20.00;99.90;;;;;;5079773;28;20064;-59
2022/07/12 00:04:12;;;;;;;7.22;4.53;;;20.00;99.90;;;;;;5080029;28;20055;-59
2022/07/12 00:06:38;;;;;;;5.18;4.40;;;19.90;99.90;;;;;;5080422;28;20028;-59
2022/07/12 00:09:04;;;;;;;5.57;4.60;;;19.80;99.90;;;;;;5079715;28;20348;-59
2022/07/12 00:11:30;;;;;;;5.68;3.92;;;19.70;99.90;;;;;;5079695;28;20037;-59
2022/07/12 00:13:56;;;;;;;6.00;4.57;;;19.80;99.90;;;;;;5079599;28;20062;-59
2022/07/12 00:16:22;;;;;;;6.15;4.43;;;19.70;99.90;;;;;;5079665;28;20033;-59
2022/07/12 00:18:48;;;;;;;5.18;4.20;;;19.70;99.90;;;;;;5079881;28;20319;-59
2022/07/12 00:21:14;;;;;;;5.28;4.30;;;19.60;99.90;;;;;;5079460;28;20033;-58
2022/07/12 00:23:40;;;;;;;7.28;4.13;;;19.70;99.90;;;;;;5079517;28;20016;-58
2022/07/12 00:26:06;;;;;;;5.13;3.80;;;19.60;99.90;;;;;;5079396;28;20044;-58
2022/07/12 00:28:32;;;;;;;4.68;3.80;;;19.60;99.90;;;;;;5078602;28;20404;-59
2022/07/12 00:30:58;;;;;;;5.50;3.78;;;19.60;99.90;;;;;;5079346;28;20274;-58
2022/07/12 00:33:24;;;;;;;4.47;4.05;;;19.50;99.90;;;;;;5079741;28;20056;-58
2022/07/12 00:35:50;;;;;;;4.65;4.25;;;19.50;99.90;;;;;;5078543;28;20067;-58
2022/07/12 00:38:15;;;;;;;4.97;3.85;;;19.40;99.90;;;;;;5078396;28;20033;-58
2022/07/12 00:40:41;;;;;;;4.90;3.97;;;19.30;99.90;;;;;;5078665;28;20384;-58
2022/07/12 00:43:07;;;;;;;4.43;3.60;;;19.30;99.90;;;;;;5079141;28;20317;-58
2022/07/12 00:45:33;;;;;;;4.38;3.97;;;19.30;99.90;;;;;;5078414;28;20304;-59
2022/07/12 00:47:59;;;;;;;3.90;3.60;;;19.30;99.90;;;;;;5079009;28;20029;-58
2022/07/12 00:50:25;;;;;;;3.95;3.60;;;19.20;99.90;;;;;;5078941;28;20043;-58
2022/07/12 00:52:54;;;;;;;5.68;3.60;;;19.10;99.90;;;;;;5078918;28;20036;-59
2022/07/12 00:55:21;;;;;;;4.00;3.60;;;19.10;99.90;;;;;;5078158;28;20059;-58
2022/07/12 00:57:50;;;;;;;4.47;3.60;;;19.20;99.90;;;;;;5078830;28;20043;-58
2022/07/12 01:00:29;;;;;;;4.00;3.47;;;19.20;99.90;;;;;;5078724;28;20036;-58
2022/07/12 01:02:57;;;;;;;3.92;3.60;;;19.20;99.90;;;;;;5078780;28;20020;-60
2022/07/12 01:05:26;;;;;;;4.05;3.70;;;19.20;99.90;;;;;;5078006;28;20029;-60
2022/07/12 01:07:54;;;;;;;5.30;3.78;;;19.20;99.90;;;;;;5078611;28;20029;-58
2022/07/12 01:10:20;;;;;;;4.82;3.67;;;19.20;99.90;;;;;;5078501;28;20052;-58
2022/07/12 01:12:46;;;;;;;4.00;3.60;;;19.20;99.90;;;;;;5078466;28;20108;-58
2022/07/12 01:15:12;;;;;;;4.40;3.67;;;19.10;99.90;;;;;;5078403;28;20029;-58
2022/07/12 01:17:39;;;;;;;3.90;3.60;;;19.00;99.90;;;;;;5079006;28;20037;-58
2022/07/12 01:20:08;;;;;;;5.38;3.90;;;18.90;99.90;;;;;;5078270;28;20043;-58
2022/07/12 01:22:36;;;;;;;3.60;3.30;;;18.90;99.90;;;;;;5078332;28;20063;-59
2022/07/12 01:25:04;;;;;;;4.05;3.75;;;18.90;99.90;;;;;;5078255;28;20427;-58
2022/07/12 01:27:30;;;;;;;4.25;3.80;;;18.90;99.90;;;;;;5078212;28;20025;-57
2022/07/12 01:29:56;;;;;;;4.13;3.70;;;18.90;99.90;;;;;;5078175;28;20036;-58
2022/07/12 01:32:25;;;;;;;4.07;3.70;;;18.80;99.90;;;;;;5078666;28;20036;-58
2022/07/12 01:34:53;;;;;;;4.80;4.40;;;18.80;99.90;;;;;;5078016;28;20111;-58
2022/07/12 01:37:19;;;;;;;6.70;4.25;;;18.70;99.90;;;;;;5077963;28;20119;-58
2022/07/12 01:39:47;;;;;;;5.15;3.90;;;18.80;99.90;;;;;;5078214;28;20266;-59
2022/07/12 01:42:13;;;;;;;4.00;3.70;;;18.70;99.90;;;;;;5078165;28;20384;-59
2022/07/12 01:44:39;;;;;;;6.10;4.47;;;18.70;99.90;;;;;;5077863;28;20020;-58
2022/07/12 01:47:05;;;;;;;5.00;4.25;;;18.70;99.90;;;;;;5077831;28;20051;-58
2022/07/12 01:49:31;;;;;;;4.65;4.20;;;18.60;99.90;;;;;;5077866;28;20032;-58
2022/07/12 01:51:58;;;;;;;5.93;3.95;;;18.60;99.90;;;;;;5076754;28;20040;-59
2022/07/12 01:54:25;;;;;;;6.45;4.13;;;18.70;99.90;;;;;;5077492;28;20033;-58
2022/07/12 01:56:54;;;;;;;4.68;4.25;;;18.70;99.90;;;;;;5077506;28;20052;-58
2022/07/12 01:59:21;;;;;;;6.05;3.85;;;18.70;99.90;;;;;;5077806;28;20024;-58
2022/07/12 02:01:48;;;;;;;4.22;3.53;;;18.70;99.90;;;;;;5077521;28;20029;-58
2022/07/12 02:04:18;;;;;;;4.18;3.70;;;18.60;99.90;;;;;;5077462;28;20025;-58
2022/07/12 02:06:48;;;;;;;4.20;3.85;;;18.60;99.90;;;;;;5076805;28;20043;-59
2022/07/12 02:09:14;;;;;;;4.20;3.88;;;18.50;99.90;;;;;;5077454;28;20043;-58
2022/07/12 02:11:41;;;;;;;4.50;4.10;;;18.50;99.90;;;;;;5077696;28;20473;-58
2022/07/12 02:14:07;;;;;;;4.35;3.97;;;18.60;99.90;;;;;;5077522;28;20420;-59
2022/07/12 02:16:33;;;;;;;5.95;4.00;;;18.50;99.90;;;;;;5077376;28;20127;-58
2022/07/12 02:18:59;;;;;;;3.97;3.45;;;18.50;99.90;;;;;;5077284;28;20067;-58
2022/07/12 02:21:25;;;;;;;4.22;3.78;;;18.50;99.90;;;;;;5077167;28;20047;-58
2022/07/12 02:23:51;;;;;;;4.35;3.95;;;18.50;99.90;;;;;;5077208;28;20296;-58
2022/07/12 02:26:17;;;;;;;4.93;3.78;;;18.40;99.90;;;;;;5076449;28;20384;-58
2022/07/12 02:28:43;;;;;;;4.35;3.95;;;18.30;99.90;;;;;;5077066;28;20025;-59
2022/07/12 02:31:08;;;;;;;4.13;3.80;;;18.30;99.90;;;;;;5077364;28;20445;-58
2022/07/12 02:33:35;;;;;;;3.90;3.50;;;18.40;99.90;;;;;;5077138;28;20111;-58
2022/07/12 02:36:00;;;;;;;3.38;2.97;;;18.20;99.90;;;;;;5076573;28;20397;-59
2022/07/12 02:38:26;;;;;;;3.72;3.30;;;18.30;99.90;;;;;;5077344;28;20035;-59
2022/07/12 02:40:55;;;;;;;4.70;3.75;;;18.20;99.90;;;;;;5076244;28;20054;-58
2022/07/12 02:43:28;;;;;;;3.92;3.55;;;18.20;99.90;;;;;;5076989;28;20028;-58
2022/07/12 02:46:02;;;;;;;5.00;4.00;;;18.10;99.90;;;;;;5076937;28;20111;-58
2022/07/12 02:48:28;;;;;;;4.55;3.78;;;18.20;99.90;;;;;;5077319;28;20075;-58
2022/07/12 02:50:54;;;;;;;3.97;3.50;;;18.10;99.90;;;;;;5077056;28;20108;-58
2022/07/12 02:53:20;;;;;;;4.18;3.35;;;18.10;99.90;;;;;;5076896;28;20068;-59
2022/07/12 02:55:46;;;;;;;3.80;3.15;;;18.00;99.90;;;;;;5076653;28;20145;-59
2022/07/12 02:58:12;;;;;;;3.75;3.33;;;17.90;99.90;;;;;;5076818;28;20044;-59
2022/07/12 03:00:38;;;;;;;4.05;3.65;;;17.90;99.90;;;;;;5076746;28;20106;-59
2022/07/12 03:03:07;;;;;;;6.43;3.63;;;17.90;99.90;;;;;;5080284;28;20297;-59
2022/07/12 03:05:34;;;;;;;3.83;3.53;;;18.10;99.90;;;;;;5083706;28;20035;-59
2022/07/12 03:08:00;;;;;;;4.10;3.70;;;17.90;99.90;;;;;;5083151;28;20052;-59
2022/07/12 03:10:26;;;;;;;3.88;3.47;;;17.80;99.90;;;;;;5083254;28;20040;-59
2022/07/12 03:12:52;;;;;;;3.35;2.97;;;17.70;99.90;;;;;;5082654;28;20289;-59
2022/07/12 03:15:17;;;;;;;4.07;3.78;;;17.50;99.90;;;;;;5083321;28;20323;-59
2022/07/12 03:17:43;;;;;;;3.55;3.25;;;17.40;99.90;;;;;;5083883;28;20037;-59
2022/07/12 03:20:11;;;;;;;4.03;3.63;;;17.30;99.90;;;;;;5083285;28;20032;-59
2022/07/12 03:22:37;;;;;;;3.95;3.50;;;17.30;99.90;;;;;;5083292;28;20024;-59
2022/07/12 03:25:04;;;;;;;4.05;3.65;;;17.30;99.90;;;;;;5083247;28;20115;-59
2022/07/12 03:27:33;;;;;;;5.53;4.03;;;17.20;99.90;;;;;;5083393;28;20089;-59
2022/07/12 03:29:59;;;;;;;5.07;4.22;;;17.30;99.90;;;;;;5082248;28;20040;-59
2022/07/12 03:32:25;;;;;;;4.65;4.25;;;17.40;99.90;;;;;;5082372;28;20303;-59
2022/07/12 03:34:50;;;;;;;4.43;4.03;;;17.50;99.90;;;;;;5082989;28;20028;-59
2022/07/12 03:37:16;;;;;;;4.35;3.95;;;17.40;99.90;;;;;;5082200;28;20060;-59
2022/07/12 03:39:42;;;;;;;4.75;4.30;;;17.30;99.90;;;;;;5082569;28;20289;-59
2022/07/12 03:42:07;;;;;;;4.50;4.10;;;17.20;99.90;;;;;;5082560;28;20078;-59
2022/07/12 03:44:33;;;;;;;4.65;4.25;;;17.30;99.90;;;;;;5082771;28;20039;-59
2022/07/12 03:47:00;;;;;;;5.63;4.25;;;17.40;99.90;;;;;;5082799;28;20072;-59
2022/07/12 03:49:26;;;;;;;4.50;4.15;;;17.40;99.90;;;;;;5082181;28;20535;-59
2022/07/12 03:51:51;;;;;;;5.93;4.32;;;17.30;99.90;;;;;;5082834;28;20096;-59
2022/07/12 03:54:17;;;;;;;4.57;4.18;;;17.40;99.90;;;;;;5082989;28;20331;-60
2022/07/12 03:59:28;;;;;;;4.82;4.43;;;17.40;99.90;;;;;;5083010;28;20071;-58
2022/07/12 04:01:53;;;;;;;4.95;4.28;;;17.30;99.90;;;;;;5065788;28;20408;-59
2022/07/12 04:04:19;;;;;;;4.88;4.47;;;17.30;99.90;;;;;;5083219;28;20021;-59
2022/07/12 04:06:46;;;;;;;5.68;4.63;;;17.20;99.90;;;;;;5083401;28;20054;-59
2022/07/12 04:09:12;;;;;;;4.78;4.25;;;17.30;99.90;;;;;;5083116;28;20112;-59
2022/07/12 04:11:38;;;;;;;5.13;4.63;;;17.40;99.90;;;;;;5083557;28;20117;-60
2022/07/12 04:14:04;;;;;;;5.88;4.32;;;17.40;99.90;;;;;;5081253;28;20029;-59
2022/07/12 04:16:30;;;;;;;7.03;4.82;;;17.40;99.90;;;;;;5079859;28;20044;-59
2022/07/12 04:18:56;;;;;;;6.32;5.07;;;17.20;99.90;;;;;;5079738;28;20085;-60
2022/07/12 04:21:22;;;;;;;5.65;4.85;;;17.20;99.90;;;;;;5078914;28;20427;-59
2022/07/12 04:23:48;;;;;;;6.80;4.95;;;17.10;99.90;;;;;;5079953;28;20063;-59
2022/07/12 04:26:14;;;;;;;5.55;4.90;;;17.20;99.90;;;;;;5079791;28;20055;-59
2022/07/12 04:28:40;;;;;;;5.97;5.07;;;17.20;99.90;;;;;;5079399;28;20103;-59
2022/07/12 04:31:09;;;;;;;5.35;4.60;;;17.20;99.90;;;;;;5079383;28;20037;-59
2022/07/12 04:33:35;;;;;;;5.25;4.75;;;17.30;99.90;;;;;;5061790;28;20048;-60
2022/07/12 04:36:01;;;;;;;5.32;4.82;;;17.30;99.90;;;;;;5078929;28;20064;-60
2022/07/12 04:38:27;;;;;;;6.47;5.15;;;17.40;99.90;;;;;;5078436;28;20036;-59
2022/07/12 04:40:53;;;;;;;5.75;5.15;;;17.60;99.90;;;;;;5079663;28;20040;-59
2022/07/12 04:43:18;;;;;;;5.60;5.10;;;17.70;99.90;;;;;;5079132;28;20031;-58
2022/07/12 04:45:44;;;;;;;5.95;5.38;;;17.70;99.90;;;;;;5079634;28;20037;-58
2022/07/12 04:48:11;;;;;;;6.97;4.78;;;17.70;99.90;;;;;;5078843;28;20032;-58
2022/07/12 04:50:36;;;;;;;6.00;5.07;;;17.80;99.90;;;;;;5079300;28;20047;-58
2022/07/12 04:53:02;;;;;;;6.38;5.40;;;17.80;99.90;;;;;;5078978;28;20076;-58
2022/07/12 04:55:28;;;;;;;7.90;5.75;;;18.00;99.90;;;;;;5078732;28;20130;-58
2022/07/12 04:57:54;;;;;;;5.35;4.90;;;18.00;99.90;;;;;;5078820;28;20432;-58
2022/07/12 05:00:20;;;;;;;5.93;5.32;;;18.10;99.90;;;;;;5078726;28;20024;-59
2022/07/12 05:02:46;;;;;;;6.13;5.53;;;18.30;99.90;;;;;;5078682;28;20021;-58
2022/07/12 05:05:12;;;;;;;6.72;5.53;;;18.40;99.90;;;;;;5078751;28;20025;-59
2022/07/12 05:07:38;;;;;;;5.47;4.95;;;18.40;99.90;;;;;;5078679;28;20056;-58
2022/07/12 05:10:04;;;;;;;9.15;5.85;;;18.60;99.90;;;;;;5078598;28;20072;-59
2022/07/12 05:12:30;;;;;;;6.88;6.18;;;18.70;99.90;;;;;;5078572;28;20037;-59
2022/07/12 05:14:56;;;;;;;6.82;5.40;;;18.80;99.90;;;;;;5078483;28;20033;-59
2022/07/12 05:17:21;;;;;;;5.65;5.07;;;18.90;99.90;;;;;;5078517;28;20360;-59
2022/07/12 05:19:47;;;;;;;6.68;5.53;;;19.00;99.90;;;;;;5078406;28;20033;-58
2022/07/12 05:22:13;;;;;;;5.82;5.32;;;19.10;99.90;;;;;;5077494;28;20036;-58
2022/07/12 05:24:39;;;;;;;6.57;5.35;;;19.30;99.90;;;;;;5078612;28;20396;-59
2022/07/12 05:27:05;;;;;;;5.70;5.10;;;19.40;99.90;;;;;;5077350;28;20119;-59
2022/07/12 05:29:30;;;;;;;5.93;4.80;;;19.60;99.90;;;;;;5078213;28;20407;-59
2022/07/12 05:31:57;;;;;;;5.55;5.05;;;19.70;99.90;;;;;;5078217;28;20308;-59
2022/07/12 05:34:23;;;;;;;5.25;4.75;;;19.70;99.90;;;;;;5078085;28;20447;-58
2022/07/12 05:36:49;;;;;;;5.25;4.75;;;19.90;99.90;;;;;;5077364;28;20032;-59
2022/07/12 05:39:15;;;;;;;5.28;4.78;;;20.20;99.90;;;;;;5078048;28;20421;-59
2022/07/12 05:41:41;;;;;;;4.78;4.38;;;20.20;99.90;;;;;;5078686;28;20033;-58
2022/07/12 05:44:06;;;;;;;5.07;4.57;;;20.20;99.90;;;;;;5077920;28;20304;-58
2022/07/12 05:46:32;;;;;;;5.20;4.70;;;20.30;99.90;;;;;;5077933;28;20114;-58
2022/07/12 05:48:58;;;;;;;5.07;4.68;;;20.40;99.90;;;;;;5077213;28;20123;-59
2022/07/12 05:54:10;;;;;;;5.90;4.82;;;20.40;99.90;;;;;;5077712;28;20416;-59
2022/07/12 05:56:36;;;;;;;5.68;5.18;;;20.20;99.90;;;;;;5077540;28;20143;-59
2022/07/12 05:59:01;;;;;;;5.85;4.85;;;20.20;99.90;;;;;;5077683;28;20052;-59
2022/07/12 06:01:27;;;;;;;6.28;5.53;;;20.30;99.90;;;;;;5077422;28;20047;-59
2022/07/12 06:03:53;;;;;;;7.32;5.03;;;20.10;99.90;;;;;;5077482;28;20480;-60
2022/07/12 06:06:19;;;;;;;7.25;5.45;;;20.00;99.90;;;;;;5077343;28;20088;-59
2022/07/12 06:08:45;;;;;;;5.65;4.45;;;19.90;99.90;;;;;;5077655;28;20449;-59
2022/07/12 06:11:10;;;;;;;7.72;5.32;;;20.10;99.90;;;;;;5077946;28;20036;-59
2022/07/12 06:13:36;;;;;;;6.95;4.93;;;20.30;99.90;;;;;;5076570;28;20121;-59
2022/07/12 06:16:05;;;;;;;5.13;4.63;;;20.10;99.90;;;;;;5077832;28;20029;-59
2022/07/12 06:18:34;;;;;;;5.53;5.10;;;20.20;99.90;;;;;;5077175;28;20040;-59
2022/07/12 06:20:59;;;;;;;5.45;4.90;;;20.10;99.90;;;;;;5077155;28;20041;-57
2022/07/12 06:23:25;;;;;;;8.20;5.43;;;20.00;99.90;;;;;;5077185;28;20147;-58
2022/07/12 06:25:51;;;;;;;6.22;5.38;;;20.00;99.90;;;;;;5077184;28;20416;-59
2022/07/12 06:28:17;;;;;;;8.05;5.60;;;20.10;99.90;;;;;;5076435;28;20103;-58
2022/07/12 06:30:43;;;;;;;6.10;5.57;;;20.10;99.90;;;;;;5077155;28;20120;-59
2022/07/12 06:33:09;;;;;;;5.57;4.93;;;20.20;99.90;;;;;;5077502;28;20308;-59
2022/07/12 06:35:35;;;;;;;6.10;5.20;;;20.30;99.90;;;;;;5077042;28;20032;-60
2022/07/12 06:38:01;;;;;;;5.78;5.00;;;20.60;99.90;;;;;;5076521;28;20301;-60
2022/07/12 06:40:26;;;;;;;6.90;5.22;;;20.70;99.90;;;;;;5076941;28;20304;-58
2022/07/12 06:42:52;;;;;;;6.03;4.78;;;20.80;99.90;;;;;;5077518;28;20028;-59
2022/07/12 06:45:18;;;;;;;6.78;4.80;;;20.80;99.90;;;;;;5077101;28;20082;-58
2022/07/12 06:47:44;;;;;;;5.28;4.78;;;20.80;99.90;;;;;;5076899;28;20089;-58
2022/07/12 06:50:10;;;;;;;7.72;5.15;;;20.70;99.90;;;;;;5076208;28;20049;-59
2022/07/12 06:52:36;;;;;;;5.47;4.97;;;20.60;99.90;;;;;;5077298;28;20033;-58
2022/07/12 06:55:02;;;;;;;5.82;5.30;;;20.50;99.90;;;;;;5076598;28;20308;-58
2022/07/12 06:57:29;;;;;;;5.07;4.63;;;20.40;99.90;;;;;;5076915;28;20028;-58
2022/07/12 06:59:56;;;;;;;6.25;5.65;;;20.60;99.90;;;;;;5076708;28;20044;-58
2022/07/12 07:02:22;;;;;;;6.22;5.72;;;20.80;99.90;;;;;;5076828;28;20024;-58
2022/07/12 07:04:48;;;;;;;7.25;6.32;;;20.80;99.90;;;;;;5076792;28;20059;-58
2022/07/12 07:07:14;;;;;;;7.03;6.43;;;20.80;99.90;;;;;;5076711;28;20028;-58
2022/07/12 07:09:40;;;;;;;6.82;6.00;;;20.50;99.90;;;;;;5076123;28;20029;-58
2022/07/12 07:12:06;;;;;;;7.15;6.45;;;20.40;99.90;;;;;;5076956;28;20036;-59
2022/07/12 07:14:31;;;;;;;8.73;7.07;;;20.50;99.90;;;;;;5076669;28;20366;-59
2022/07/12 07:16:57;;;;;;;8.75;7.90;;;20.70;99.90;;;;;;5076780;28;20028;-59
2022/07/12 07:19:24;;;;;;;8.43;7.63;;;20.80;99.90;;;;;;5076782;28;20094;-59
2022/07/12 07:21:50;;;;;;;7.78;7.07;;;21.00;99.90;;;;;;5075766;28;20418;-59
2022/07/12 07:24:16;;;;;;;8.00;7.35;;;21.20;99.90;;;;;;5076701;28;20025;-59
2022/07/12 07:26:42;;;;;;;7.85;7.18;;;21.40;99.90;;;;;;5076602;28;20043;-59
2022/07/12 07:31:52;;;;;;;7.28;6.57;;;21.20;99.90;;;;;;5077125;28;20107;-59
2022/07/12 07:34:18;;;;;;;7.65;6.53;;;21.30;99.90;;;;;;5076455;28;20079;-60
2022/07/12 07:36:43;;;;;;;6.85;6.25;;;21.70;99.90;;;;;;5077183;28;20400;-61
2022/07/12 07:39:09;;;;;;;8.18;7.38;;;22.00;99.90;;;;;;5076401;28;20032;-59
2022/07/12 07:41:35;;;;;;;6.82;6.18;;;21.90;99.90;;;;;;5076342;28;20036;-60
2022/07/12 07:44:01;;;;;;;7.40;6.35;;;21.60;99.90;;;;;;5076634;28;20297;-60
2022/07/12 07:46:27;;;;;;;7.07;6.38;;;21.70;99.90;;;;;;5076426;28;20028;-60
2022/07/12 07:48:52;;;;;;;7.15;5.93;;;21.70;99.90;;;;;;5075490;28;20347;-60
2022/07/12 07:51:18;;;;;;;7.88;5.90;;;21.80;99.90;;;;;;5080116;28;20029;-60
2022/07/12 07:53:44;;;;;;;6.43;5.88;;;22.00;99.90;;;;;;5079937;28;20036;-60
2022/07/12 07:56:10;;;;;;;6.03;5.50;;;22.30;99.90;;;;;;5079880;28;20290;-59
2022/07/12 07:58:36;;;;;;;7.47;5.60;;;22.70;99.90;;;;;;5079157;28;20170;-60
2022/07/12 08:01:01;;;;;;;6.28;5.63;;;22.90;99.90;;;;;;5079143;28;20119;-59
2022/07/12 08:03:27;;;;;;;7.53;5.30;;;23.00;99.90;;;;;;5079795;28;20025;-60
2022/07/12 08:05:57;;;;;;;6.28;5.70;;;23.10;99.90;;;;;;5079820;28;20411;-59
2022/07/12 08:08:24;;;;;;;8.68;4.95;;;23.10;99.90;;;;;;5079818;28;20063;-60
2022/07/12 08:10:50;;;;;;;5.50;5.00;;;23.10;99.90;;;;;;5079735;28;20045;-59
2022/07/12 08:13:16;;;;;;;5.65;5.15;;;22.70;99.90;;;;;;5080117;28;20028;-59
2022/07/12 08:15:42;;;;;;;5.82;5.18;;;22.70;99.90;;;;;;5079757;28;20414;-59
2022/07/12 08:18:08;;;;;;;5.85;5.25;;;22.90;99.90;;;;;;5079558;28;20028;-58
2022/07/12 08:20:34;;;;;;;5.57;5.13;;;23.00;99.90;;;;;;5078884;28;20044;-59
2022/07/12 08:23:00;;;;;;;6.28;5.68;;;23.20;99.90;;;;;;5079554;28;20067;-59
2022/07/12 08:25:25;;;;;;;6.28;5.75;;;23.30;99.90;;;;;;5079600;28;20029;-59
2022/07/12 08:27:51;;;;;;;9.77;5.80;;;23.40;99.90;;;;;;5080417;28;20098;-59
2022/07/12 08:30:17;;;;;;;6.30;5.80;;;23.30;99.90;;;;;;5079264;28;20097;-59
2022/07/12 08:32:44;;;;;;;7.03;6.30;;;23.30;99.90;;;;;;5079208;28;20057;-60
2022/07/12 08:35:10;;;;;;;6.85;6.25;;;23.30;99.90;;;;;;5079294;28;20454;-59
2022/07/12 08:37:35;;;;;;;6.90;6.25;;;23.40;99.90;;;;;;5078511;28;20300;-59
2022/07/12 08:40:02;;;;;;;8.18;6.22;;;23.70;99.90;;;;;;5078370;28;20037;-59
2022/07/12 08:42:28;;;;;;;6.47;5.88;;;23.80;99.90;;;;;;5079202;28;20353;-60
2022/07/12 08:44:55;;;;;;;6.50;5.82;;;23.90;99.90;;;;;;5079131;28;20033;-63
2022/07/12 08:47:21;;;;;;;6.18;5.60;;;24.00;99.90;;;;;;5078305;28;20376;-58
2022/07/12 08:50:13;;;;;;;6.40;5.90;;;24.20;99.90;;;;;;5078264;28;20116;-58
2022/07/12 08:52:49;;;;;;;5.97;5.50;;;24.10;99.90;;;;;;5078952;28;20040;-59
2022/07/12 08:55:25;;;;;;;5.90;5.40;;;24.10;99.90;;;;;;5078957;28;20472;-58
2022/07/12 08:57:54;;;;;;;5.60;5.10;;;24.30;99.90;;;;;;5078857;28;20037;-59
2022/07/12 09:00:21;;;;;;;6.07;5.53;;;24.60;99.90;;;;;;5078470;28;20047;-59
2022/07/12 09:02:50;;;;;;;6.30;5.80;;;24.50;99.90;;;;;;5078534;28;20420;-59
2022/07/12 09:05:19;;;;;;;5.50;5.10;;;24.60;99.90;;;;;;5077987;28;20044;-59
2022/07/12 09:07:46;;;;;;;5.63;5.22;;;24.60;99.90;;;;;;5078581;28;20036;-59
2022/07/12 09:10:12;;;;;;;5.03;4.68;;;24.80;99.90;;;;;;5078647;28;20388;-59
2022/07/12 09:12:40;;;;;;;4.80;4.50;;;24.80;99.90;;;;;;5079202;28;20036;-59
2022/07/12 09:15:19;;;;;;;5.50;5.10;;;24.90;99.90;;;;;;5078556;28;20025;-59
2022/07/12 09:17:58;;;;;;;4.95;4.55;;;24.70;99.90;;;;;;5077743;28;20033;-59
2022/07/12 09:20:29;;;;;;;5.38;4.88;;;24.90;99.90;;;;;;5078346;28;20047;-63
2022/07/12 09:23:02;;;;;;;5.22;4.70;;;25.10;99.90;;;;;;5078314;28;20299;-59
2022/07/12 09:25:28;;;;;;;6.72;5.40;;;25.30;99.90;;;;;;5078219;28;20071;-59
2022/07/12 09:27:56;;;;;;;4.05;3.72;;;25.10;99.90;;;;;;5078091;28;20033;-59
2022/07/12 09:30:27;;;;;;;4.22;3.83;;;25.20;99.90;;;;;;5078179;28;20037;-59
2022/07/12 09:36:17;;;;;;;4.60;4.30;;;25.70;99.90;;;;;;5078128;28;20025;-59
2022/07/12 09:38:49;;;;;;;5.00;4.40;;;26.10;99.90;;;;;;5078074;28;20346;-59
2022/07/12 09:41:19;;;;;;;6.45;4.60;;;26.30;99.90;;;;;;5077908;28;20287;-60
2022/07/12 09:43:46;;;;;;;5.05;4.60;;;26.20;99.90;;;;;;5078199;28;20040;-60
2022/07/12 09:46:13;;;;;;;5.97;4.72;;;26.10;99.90;;;;;;5077935;28;20041;-59
2022/07/12 09:48:41;;;;;;;5.45;4.57;;;26.20;99.90;;;;;;5077895;28;20123;-59
2022/07/12 09:51:09;;;;;;;4.68;4.25;;;26.10;99.90;;;;;;5077769;28;20041;-60
2022/07/12 09:53:46;;;;;;;6.18;4.80;;;26.40;99.90;;;;;;5077880;28;20392;-59
2022/07/12 09:56:14;;;;;;;4.68;4.30;;;26.10;99.90;;;;;;5076810;28;20412;-60
2022/07/12 09:58:57;;;;;;;5.70;4.43;;;25.90;99.90;;;;;;5078055;28;20028;-58
2022/07/12 10:01:24;;;;;;;4.20;3.80;;;26.30;99.90;;;;;;5078121;28;20044;-60
2022/07/12 10:03:55;;;;;;;4.57;4.18;;;26.70;99.90;;;;;;5077932;28;20021;-59
2022/07/12 10:06:27;;;;;;;4.40;4.10;;;26.80;99.90;;;;;;5076828;28;20090;-59
2022/07/12 10:08:54;;;;;;;4.30;3.90;;;27.00;99.90;;;;;;5077484;28;20286;-59
2022/07/12 10:11:22;;;;;;;4.13;3.83;;;27.00;99.90;;;;;;5077390;28;20055;-58
2022/07/12 10:13:48;;;;;;;4.40;4.00;;;27.10;99.90;;;;;;5076865;28;20086;-59
2022/07/12 10:16:16;;;;;;;3.83;3.53;;;27.40;99.90;;;;;;5077395;28;20045;-59
2022/07/12 10:18:42;;;;;;;4.10;3.80;;;27.60;99.90;;;;;;5077231;28;20024;-59
2022/07/12 10:21:23;;;;;;;4.35;4.05;;;27.80;99.90;;;;;;5077267;28;20127;-59
2022/07/12 10:23:49;;;;;;;4.53;4.13;;;27.70;99.90;;;;;;5076548;28;20032;-59
2022/07/12 10:26:14;;;;;;;6.22;4.18;;;27.80;99.90;;;;;;5077187;28;20035;-59
2022/07/12 10:29:04;;;;;;;4.22;3.75;;;27.70;99.90;;;;;;5077751;28;20047;-58
2022/07/12 10:31:35;;;;;;;5.32;4.05;;;27.70;99.90;;;;;;5077202;28;20032;-61
2022/07/12 10:34:19;;;;;;;4.80;3.83;;;27.30;99.90;;;;;;5077085;28;20333;-59
2022/07/12 10:36:56;;;;;;;4.93;4.53;;;27.60;99.90;;;;;;5077696;28;20032;-58
2022/07/12 10:39:26;;;;;;;4.32;3.92;;;28.00;99.90;;;;;;5077095;28;20119;-59
2022/07/12 10:42:07;;;;;;;4.13;3.72;;;28.10;99.90;;;;;;5077039;28;20030;-60
2022/07/12 10:44:35;;;;;;;4.03;3.70;;;27.60;99.90;;;;;;5077376;28;20067;-60
2022/07/12 10:47:02;;;;;;;5.63;3.90;;;27.40;99.90;;;;;;5076943;28;20024;-60
2022/07/12 10:49:30;;;;;;;4.10;3.70;;;27.00;99.90;;;;;;5076129;28;20036;-60
2022/07/12 10:52:24;;;;;;;4.97;4.30;;;27.60;99.90;;;;;;5076330;28;20285;-61
2022/07/12 10:54:50;;;;;;;4.30;4.00;;;27.60;99.90;;;;;;5076423;28;20400;-60
2022/07/12 10:57:36;;;;;;;4.63;3.45;;;27.80;99.90;;;;;;5077554;28;20029;-60
2022/07/12 11:00:03;;;;;;;5.10;3.35;;;27.90;99.90;;;;;;5076728;28;20132;-60
2022/07/12 11:02:30;;;;;;;4.10;3.55;;;28.20;99.90;;;;;;5076512;28;20313;-60
2022/07/12 11:04:56;;;;;;;3.40;3.10;;;28.50;99.90;;;;;;5076715;28;20371;-60
2022/07/12 11:07:24;;;;;;;6.35;2.70;;;28.80;99.90;;;;;;5077371;28;20090;-61
2022/07/12 11:09:53;;;;;;;2.38;2.28;;;28.90;99.90;;;;;;5075998;28;20029;-61
2022/07/12 11:12:19;;;;;;;3.30;2.40;;;29.60;99.90;;;;;;5077064;28;20033;-61
2022/07/12 11:14:46;;;;;;;2.60;2.40;;;31.30;99.90;;;;;;5076672;28;20040;-60
2022/07/12 11:17:12;;;;;;;5.53;3.03;;;32.10;99.90;;;;;;5075843;28;20025;-60
2022/07/12 11:19:37;;;;;;;3.30;3.10;;;30.80;99.90;;;;;;5076689;28;20127;-60
2022/07/12 11:22:03;;;;;;;5.65;3.05;;;30.60;99.90;;;;;;5076516;28;20401;-59
2022/07/12 11:24:31;;;;;;;3.08;2.70;;;30.90;99.90;;;;;;5078588;28;20029;-61
2022/07/12 11:26:59;;;;;;;2.67;1.83;;;30.50;99.90;;;;;;5080602;28;20043;-62
2022/07/12 11:29:26;;;;;;;2.38;2.15;;;30.00;99.90;;;;;;5080440;28;20039;-61
2022/07/12 11:32:10;;;;;;;2.47;1.88;;;30.50;99.90;;;;;;5081165;28;20044;-61
2022/07/12 11:34:35;;;;;;;2.28;2.00;;;32.00;99.90;;;;;;5080459;28;20051;-62
2022/07/12 11:37:01;;;;;;;2.42;2.22;;;33.60;96.20;;;;;;5080399;28;20036;-61
2022/07/12 11:39:38;;;;;;;2.10;2.00;;;34.30;92.50;;;;;;5079818;28;20063;-62
2022/07/12 11:42:05;;;;;;;3.03;1.90;;;34.10;91.30;;;;;;5080912;28;20054;-61
2022/07/12 11:44:49;;;;;;;5.65;2.30;;;33.10;90.60;;;;;;5080429;28;20025;-61
2022/07/12 11:47:16;;;;;;;2.30;2.10;;;34.30;89.70;;;;;;5079644;28;20050;-61
2022/07/12 11:49:51;;;;;;;2.20;2.00;;;34.50;87.00;;;;;;5080454;28;20420;-63
2022/07/12 11:52:18;;;;;;;2.35;2.15;;;36.10;84.20;;;;;;5080084;28;20063;-60
2022/07/12 11:54:48;;;;;;;2.05;1.95;;;36.40;79.70;;;;;;5079927;28;20333;-62
2022/07/12 11:57:15;;;;;;;2.10;2.00;;;36.20;75.40;;;;;;5080316;28;20085;-61
2022/07/12 11:59:41;;;;;;;2.55;1.95;;;36.50;75.20;;;;;;5079378;28;20029;-60
2022/07/12 12:02:09;;;;;;;2.22;2.05;;;37.80;73.20;;;;;;5079920;28;20047;-61
2022/07/12 12:04:46;;;;;;;2.40;2.20;;;38.70;67.00;;;;;;5079208;28;20304;-61
2022/07/12 12:07:18;;;;;;;2.53;2.03;;;39.30;64.60;;;;;;5079934;28;20032;-61
2022/07/12 12:10:05;;;;;;;2.50;2.30;;;37.70;66.30;;;;;;5079861;28;20361;-61
2022/07/12 12:12:53;;;;;;;2.55;1.92;;;37.20;64.20;;;;;;5079800;28;20381;-62
2022/07/12 12:15:31;;;;;;;2.25;2.03;;;36.00;67.70;;;;;;5079738;28;20082;-62
2022/07/12 12:18:06;;;;;;;2.45;2.25;;;37.40;66.70;;;;;;5079681;28;20032;-62
2022/07/12 12:20:37;;;;;;;2.45;2.25;;;38.50;63.90;;;;;;5062224;28;20060;-61
2022/07/12 12:23:04;;;;;;;2.50;2.30;;;38.80;60.90;;;;;;5079656;28;20025;-63
2022/07/12 12:25:32;;;;;;;3.47;2.10;;;40.00;59.30;;;;;;5079893;28;20362;-61
2022/07/12 12:28:05;;;;;;;3.15;2.17;;;37.20;59.80;;;;;;5078858;28;20029;-63
2022/07/12 12:30:33;;;;;;;2.50;2.30;;;36.60;63.20;;;;;;5079512;28;20051;-62
2022/07/12 12:33:04;;;;;;;2.42;2.20;;;35.90;62.00;;;;;;5079414;28;20029;-61
2022/07/12 12:35:35;;;;;;;1.90;1.80;;;34.80;66.40;;;;;;5078719;28;20051;-61
2022/07/12 12:38:19;;;;;;;2.00;1.90;;;35.60;64.50;;;;;;5079436;28;20345;-62
2022/07/12 12:40:51;;;;;;;2.60;1.80;;;37.00;59.40;;;;;;5079195;28;20094;-60
2022/07/12 12:43:20;;;;;;;1.60;1.50;;;36.40;57.90;;;;;;5079670;28;20056;-59
2022/07/12 12:45:56;;;;;;;1.67;1.58;;;36.20;56.20;;;;;;5079328;28;20445;-60
2022/07/12 12:48:27;;;;;;;1.88;1.67;;;37.50;56.00;;;;;;5061809;28;20040;-59
2022/07/12 12:50:54;;;;;;;1.92;1.55;;;38.90;53.60;;;;;;5079173;28;20099;-60
2022/07/12 12:53:22;;;;;;;3.03;1.50;;;38.70;53.20;;;;;;5079042;28;20025;-62
2022/07/12 12:55:53;;;;;;;2.22;1.50;;;37.40;56.00;;;;;;5078642;28;20056;-61
2022/07/12 12:58:21;;;;;;;1.95;1.77;;;37.00;54.70;;;;;;5079107;28;20334;-61
2022/07/12 13:00:51;;;;;;;1.70;1.60;;;38.10;53.90;;;;;;5078111;28;20129;-61
2022/07/12 13:03:19;;;;;;;1.70;1.60;;;38.60;52.30;;;;;;5078874;28;20033;-61